Time;durP1;ratioP1;P1;durP2;ratioP2;P2;SDS_P1;SDS_P2;PMS_P1;PMS_P2;Temp;Humidity;BMP_temperature;BMP_pressure;BME280_temperature;BME280_humidity;BME280_pressure;Samples;Min_cycle;Max_cycle;Signal;HPM_P1;HPM_P2
2022/05/09 00:01:59;;;;;;;8.52;6.20;;;;;;;20.59;60.30;101611.47;4960343;29;20067;-78
2022/05/09 00:04:27;;;;;;;6.05;5.45;;;;;;;20.59;60.46;101608.78;4958321;29;20062;-78
2022/05/09 00:06:55;;;;;;;7.18;5.32;;;;;;;20.59;60.26;101611.47;4958277;29;20054;-78
2022/05/09 00:09:23;;;;;;;7.90;5.95;;;;;;;20.60;60.28;101606.97;4957551;29;20051;-78
2022/05/09 00:11:50;;;;;;;8.27;5.80;;;;;;;20.59;60.31;101606.09;4959675;29;20058;-78
2022/05/09 00:14:18;;;;;;;6.95;5.65;;;;;;;20.58;60.52;101604.41;4959444;29;20047;-78
2022/05/09 00:16:45;;;;;;;6.78;5.40;;;;;;;20.58;60.42;101606.19;4960377;29;20055;-77
2022/05/09 00:19:17;;;;;;;6.90;6.20;;;;;;;20.58;60.16;101599.03;4959880;29;20403;-77
2022/05/09 00:21:44;;;;;;;6.35;5.60;;;;;;;20.58;60.42;101607.09;4959582;29;20051;-78
2022/05/09 00:24:16;;;;;;;7.82;6.07;;;;;;;20.58;60.52;101600.81;4981560;28;20054;-78
2022/05/09 00:26:49;;;;;;;6.25;5.60;;;;;;;20.58;60.42;101604.41;4998535;28;20055;-78
2022/05/09 00:29:20;;;;;;;7.53;5.90;;;;;;;20.58;60.43;101598.13;4998126;28;20073;-78
2022/05/09 00:31:52;;;;;;;6.28;5.57;;;;;;;20.57;60.52;101599.97;4997722;28;20406;-77
2022/05/09 00:34:21;;;;;;;6.15;5.55;;;;;;;20.57;60.32;101597.28;4997457;28;20410;-77
2022/05/09 00:36:52;;;;;;;7.05;5.80;;;;;;;20.57;60.46;101597.28;4996795;28;20042;-78
2022/05/09 00:39:19;;;;;;;6.07;4.90;;;;;;;20.57;60.47;101596.44;4997955;28;20402;-78
2022/05/09 00:41:47;;;;;;;5.70;5.20;;;;;;;20.57;60.55;101594.59;4996518;28;20050;-78
2022/05/09 00:44:17;;;;;;;6.22;5.43;;;;;;;20.57;60.53;101597.28;4998099;28;20382;-78
2022/05/09 00:46:48;;;;;;;11.13;5.80;;;;;;;20.57;60.45;101601.81;4997219;28;20509;-78
2022/05/09 00:49:25;;;;;;;7.30;5.68;;;;;;;20.57;60.49;101597.28;4997248;28;20046;-78
2022/05/09 00:52:16;;;;;;;6.72;5.03;;;;;;;20.56;60.47;101600.97;4997014;28;20397;-78
2022/05/09 00:55:09;;;;;;;5.68;5.10;;;;;;;20.57;60.41;101602.66;4997697;28;20050;-78
2022/05/09 00:58:06;;;;;;;6.18;5.57;;;;;;;20.57;60.49;101601.81;4998902;28;20068;-78
2022/05/09 01:00:34;;;;;;;6.63;5.65;;;;;;;20.57;60.48;101608.03;5015274;28;20054;-78
2022/05/09 01:03:07;;;;;;;5.65;5.10;;;;;;;20.56;60.52;101600.97;5014619;28;20497;-78
2022/05/09 01:05:35;;;;;;;6.50;5.55;;;;;;;20.57;60.44;101599.13;4996892;28;20070;-78
2022/05/09 01:08:02;;;;;;;6.88;5.50;;;;;;;20.56;60.47;101602.78;4997801;28;20081;-77
2022/05/09 01:10:33;;;;;;;6.22;5.15;;;;;;;20.55;60.55;101601.94;5014989;28;20422;-78
2022/05/09 01:13:07;;;;;;;5.43;4.85;;;;;;;20.55;60.52;101601.94;5016129;28;20093;-77
2022/05/09 01:15:35;;;;;;;5.63;5.03;;;;;;;20.55;60.45;101604.63;5019365;28;20061;-77
2022/05/09 01:18:06;;;;;;;8.77;5.40;;;;;;;20.56;60.54;101603.66;5019059;28;20050;-77
2022/05/09 01:20:35;;;;;;;6.70;6.10;;;;;;;20.55;60.37;101598.41;5015544;28;20046;-78
2022/05/09 01:23:04;;;;;;;5.95;5.35;;;;;;;20.55;60.24;101598.41;5015331;28;20069;-77
2022/05/09 01:25:32;;;;;;;7.05;5.38;;;;;;;20.54;60.42;101602.94;5015078;28;20053;-77
2022/05/09 01:28:01;;;;;;;5.93;5.00;;;;;;;20.55;60.41;101603.78;5014063;28;20057;-78
2022/05/09 01:30:40;;;;;;;5.45;4.95;;;;;;;20.55;60.44;101609.16;5014764;28;20049;-77
2022/05/09 01:33:23;;;;;;;6.22;5.63;;;;;;;20.55;60.44;101610.00;5013772;28;20621;-78
2022/05/09 01:35:57;;;;;;;6.75;5.32;;;;;;;20.54;60.47;101602.03;4995060;28;20065;-77
2022/05/09 01:38:31;;;;;;;6.10;5.45;;;;;;;20.54;60.43;101605.63;4996900;28;20069;-77
2022/05/09 01:40:59;;;;;;;5.63;5.13;;;;;;;20.54;60.45;101610.13;4994604;28;20065;-77
2022/05/09 01:43:35;;;;;;;6.00;4.88;;;;;;;20.55;60.33;101603.78;4996432;28;20394;-77
2022/05/09 01:46:05;;;;;;;5.80;5.20;;;;;;;20.53;60.47;101600.34;4997269;28;20050;-78
2022/05/09 01:51:19;;;;;;;5.30;4.80;;;;;;;20.53;60.42;101605.72;4995647;28;20047;-77
2022/05/09 01:53:50;;;;;;;5.10;4.60;;;;;;;20.53;60.37;101601.19;4996371;28;20054;-77
2022/05/09 01:56:24;;;;;;;7.70;5.40;;;;;;;20.53;60.54;101598.50;4996427;28;20039;-78
2022/05/09 01:58:53;;;;;;;7.47;5.15;;;;;;;20.53;60.44;101597.66;4996534;28;20042;-77
2022/05/09 02:01:22;;;;;;;6.18;5.28;;;;;;;20.53;60.29;101597.66;4997324;28;20046;-78
2022/05/09 02:03:50;;;;;;;6.15;5.55;;;;;;;20.53;60.43;101594.97;4996804;28;20042;-78
2022/05/09 02:06:18;;;;;;;6.53;5.65;;;;;;;20.53;60.56;101594.97;4996115;28;20046;-78
2022/05/09 02:08:46;;;;;;;5.93;5.00;;;;;;;20.53;60.39;101594.97;4996046;28;20042;-78
2022/05/09 02:11:14;;;;;;;4.88;4.38;;;;;;;20.53;60.55;101603.03;4995832;28;20049;-78
2022/05/09 02:13:41;;;;;;;6.60;5.38;;;;;;;20.52;60.53;101594.09;4995175;28;20053;-78
2022/05/09 02:16:09;;;;;;;5.57;5.07;;;;;;;20.53;60.46;101597.66;4994833;28;20053;-78
2022/05/09 02:18:37;;;;;;;5.78;5.10;;;;;;;20.53;60.55;101593.13;4994249;28;20042;-78
2022/05/09 02:21:05;;;;;;;6.15;5.15;;;;;;;20.52;60.78;101595.94;4995030;28;20394;-78
2022/05/09 02:23:33;;;;;;;5.85;4.95;;;;;;;20.53;60.54;101594.97;4995601;28;20057;-78
2022/05/09 02:26:01;;;;;;;6.47;5.05;;;;;;;20.52;60.63;101588.72;4995748;28;20046;-77
2022/05/09 02:28:29;;;;;;;5.43;4.93;;;;;;;20.53;60.67;101589.59;4996096;28;20061;-77
2022/05/09 02:30:57;;;;;;;7.18;5.20;;;;;;;20.52;60.42;101599.50;4993843;28;20050;-77
2022/05/09 02:33:24;;;;;;;5.80;4.60;;;;;;;20.51;60.51;101597.78;4994988;28;20046;-78
2022/05/09 02:35:52;;;;;;;5.07;4.57;;;;;;;20.52;60.64;101606.69;4994773;28;20050;-77
2022/05/09 02:38:20;;;;;;;5.75;5.15;;;;;;;20.52;60.63;101607.56;4996227;28;20386;-77
2022/05/09 02:40:48;;;;;;;8.40;5.50;;;;;;;20.52;60.69;101615.63;4995933;28;20042;-78
2022/05/09 02:43:15;;;;;;;6.32;5.50;;;;;;;20.52;60.63;101607.56;4995374;28;20053;-78
2022/05/09 02:45:43;;;;;;;5.72;4.95;;;;;;;20.51;60.58;101616.63;4995590;28;20050;-78
2022/05/09 02:48:11;;;;;;;5.60;5.10;;;;;;;20.51;60.59;101616.63;4995607;28;20346;-78
2022/05/09 02:50:39;;;;;;;5.57;4.82;;;;;;;20.52;60.55;101622.84;4995402;28;20049;-78
2022/05/09 02:53:10;;;;;;;7.63;5.03;;;;;;;20.50;60.67;101622.97;4995538;28;20093;-78
2022/05/09 02:55:38;;;;;;;5.95;5.35;;;;;;;20.51;60.58;101626.53;4995954;28;20050;-77
2022/05/09 02:58:05;;;;;;;5.85;5.15;;;;;;;20.52;60.74;101633.59;4995834;28;20394;-77
2022/05/09 03:00:33;;;;;;;5.40;4.90;;;;;;;20.51;60.73;101634.59;4995512;28;20050;-77
2022/05/09 03:05:47;;;;;;;5.78;5.18;;;;;;;20.50;60.68;101639.13;4995864;28;20050;-78
2022/05/09 03:08:15;;;;;;;5.20;4.57;;;;;;;20.51;60.74;101639.97;4995022;28;20050;-78
2022/05/09 03:10:43;;;;;;;6.70;4.95;;;;;;;20.49;60.72;101640.06;4994198;28;20392;-78
2022/05/09 03:13:13;;;;;;;5.03;4.53;;;;;;;20.50;60.54;101641.81;4994644;28;20046;-77
2022/05/09 03:15:44;;;;;;;5.55;4.78;;;;;;;20.50;60.54;101641.81;4994863;28;20485;-78
2022/05/09 03:18:13;;;;;;;4.70;4.30;;;;;;;20.51;60.60;101650.72;4994784;28;20513;-77
2022/05/09 03:20:41;;;;;;;5.47;4.88;;;;;;;20.48;60.67;101644.59;4994604;28;20487;-78
2022/05/09 03:23:10;;;;;;;5.18;4.70;;;;;;;20.49;60.65;101640.91;4994900;28;20479;-78
2022/05/09 03:25:38;;;;;;;5.45;4.90;;;;;;;20.48;60.70;101628.47;4992920;28;20395;-78
2022/05/09 03:28:09;;;;;;;5.15;4.25;;;;;;;20.48;60.74;101633.84;4993865;28;20050;-78
2022/05/09 03:30:47;;;;;;;5.25;4.75;;;;;;;20.48;60.82;101641.03;4994466;28;20042;-78
2022/05/09 03:33:15;;;;;;;5.40;4.90;;;;;;;20.47;60.72;101628.56;4995539;28;20050;-78
2022/05/09 03:35:44;;;;;;;6.57;4.80;;;;;;;20.48;60.57;101635.63;4995946;28;20049;-78
2022/05/09 03:38:11;;;;;;;7.47;4.95;;;;;;;20.48;60.65;101638.34;4995445;28;20069;-78
2022/05/09 03:40:39;;;;;;;5.03;4.53;;;;;;;20.47;60.64;101640.16;4994775;28;20046;-78
2022/05/09 03:43:07;;;;;;;5.28;4.57;;;;;;;20.47;60.75;101636.63;4992688;28;20058;-78
2022/05/09 03:45:40;;;;;;;5.00;4.55;;;;;;;20.47;60.63;101642.84;4994045;28;20046;-78
2022/05/09 03:48:08;;;;;;;5.32;4.82;;;;;;;20.47;60.71;101644.69;4994184;28;20053;-78
2022/05/09 03:50:35;;;;;;;6.70;4.88;;;;;;;20.48;60.68;101646.41;4994424;28;20046;-77
2022/05/09 03:53:03;;;;;;;5.22;4.72;;;;;;;20.47;60.75;101640.16;4994205;28;20051;-78
2022/05/09 03:55:33;;;;;;;6.18;4.50;;;;;;;20.47;60.47;101642.84;4994569;28;20057;-78
2022/05/09 03:58:19;;;;;;;6.13;5.22;;;;;;;20.48;60.77;101641.03;4994569;28;20383;-77
2022/05/09 04:00:46;;;;;;;7.63;4.88;;;;;;;20.47;60.65;101631.25;4993535;28;20042;-78
2022/05/09 04:03:14;;;;;;;6.22;5.57;;;;;;;20.47;60.60;101634.78;4994881;28;20047;-78
2022/05/09 04:05:43;;;;;;;5.43;4.78;;;;;;;20.47;60.69;101633.94;4994989;28;20042;-78
2022/05/09 04:08:16;;;;;;;5.82;5.15;;;;;;;20.46;60.61;101638.47;4994448;28;20109;-77
2022/05/09 04:10:44;;;;;;;6.80;5.43;;;;;;;20.47;60.67;101639.31;4994109;28;20053;-77
2022/05/09 04:13:12;;;;;;;6.13;5.00;;;;;;;20.46;60.48;101649.22;4993910;28;20047;-77
2022/05/09 04:18:34;;;;;;;5.50;4.40;;;;;;;20.47;60.50;101655.44;4993698;28;20486;-77
2022/05/09 04:21:01;;;;;;;5.50;5.00;;;;;;;20.47;60.77;101652.75;4993565;28;20034;-78
2022/05/09 04:23:29;;;;;;;6.75;5.15;;;;;;;20.45;60.73;101658.25;4994617;28;20054;-78
2022/05/09 04:25:56;;;;;;;5.45;4.95;;;;;;;20.45;60.63;101660.94;4994149;28;20042;-78
2022/05/09 04:28:23;;;;;;;5.85;5.25;;;;;;;20.47;60.73;101668.91;4992316;28;20407;-78
2022/05/09 04:30:57;;;;;;;5.90;5.13;;;;;;;20.47;60.64;101672.44;4994879;28;20062;-78
2022/05/09 04:36:29;;;;;;;5.57;5.07;;;;;;;20.46;60.68;101692.25;4994273;28;20053;-78
2022/05/09 04:38:57;;;;;;;6.72;4.80;;;;;;;20.46;60.76;101697.63;4992221;28;20061;-78
2022/05/09 04:41:25;;;;;;;7.28;5.20;;;;;;;20.45;60.81;101690.53;4995534;28;20062;-78
2022/05/09 04:43:52;;;;;;;5.32;4.68;;;;;;;20.45;60.79;101689.66;4996780;28;20046;-78
2022/05/09 04:46:20;;;;;;;7.32;5.28;;;;;;;20.45;60.85;101693.22;4996474;28;20061;-77
2022/05/09 04:48:47;;;;;;;6.00;4.72;;;;;;;20.45;60.77;101695.91;4997647;28;20058;-78
2022/05/09 04:51:15;;;;;;;5.28;4.78;;;;;;;20.46;60.66;101696.78;4996438;28;20047;-78
2022/05/09 04:53:43;;;;;;;6.20;4.93;;;;;;;20.45;60.76;101697.72;4997409;28;20042;-77
2022/05/09 05:01:01;;;;;;;6.18;4.90;;;;;;;20.45;60.72;101703.13;5003945;28;20395;-78
2022/05/09 05:03:29;;;;;;;6.68;4.85;;;;;;;20.45;60.82;101706.66;4997752;28;20054;-78
2022/05/09 05:05:56;;;;;;;5.53;4.53;;;;;;;20.44;60.71;101707.63;4996826;28;20046;-78
2022/05/09 05:08:24;;;;;;;5.93;5.05;;;;;;;20.45;60.82;101703.13;4995688;28;20050;-78
2022/05/09 05:10:55;;;;;;;5.30;4.78;;;;;;;20.45;60.88;101695.03;4996729;28;20058;-78
2022/05/09 05:13:26;;;;;;;6.28;4.68;;;;;;;20.45;60.90;101698.59;4995228;28;20047;-78
2022/05/09 05:15:55;;;;;;;6.38;4.85;;;;;;;20.44;60.76;101696.88;4996120;28;20057;-78
2022/05/09 05:18:25;;;;;;;6.05;4.63;;;;;;;20.45;60.87;101697.72;4995842;28;20049;-77
2022/05/09 05:20:55;;;;;;;4.93;4.50;;;;;;;20.44;60.82;101698.72;4996539;28;20035;-77
2022/05/09 05:23:22;;;;;;;5.53;4.75;;;;;;;20.44;60.86;101699.56;4995774;28;20057;-77
2022/05/09 05:25:50;;;;;;;6.28;4.75;;;;;;;20.44;60.90;101702.25;4996800;28;20383;-78
2022/05/09 05:28:18;;;;;;;6.38;5.03;;;;;;;20.44;60.77;101698.72;4995677;28;20053;-78
2022/05/09 05:30:45;;;;;;;6.25;5.20;;;;;;;20.44;61.00;101699.56;4994563;28;20054;-78
2022/05/09 05:33:13;;;;;;;4.88;4.38;;;;;;;20.44;60.88;101698.72;4995646;28;20054;-78
2022/05/09 05:35:40;;;;;;;5.63;5.07;;;;;;;20.44;60.96;101709.47;4995486;28;20057;-77
2022/05/09 05:38:07;;;;;;;6.25;4.88;;;;;;;20.44;60.84;101706.78;4996650;28;20053;-78
2022/05/09 05:40:35;;;;;;;7.28;5.10;;;;;;;20.45;60.86;101711.19;4996972;28;20046;-78
2022/05/09 05:43:02;;;;;;;5.43;4.50;;;;;;;20.43;60.97;101710.47;4996059;28;20374;-78
2022/05/09 05:45:29;;;;;;;4.65;4.18;;;;;;;20.44;60.84;101714.84;4995949;28;20431;-78
2022/05/09 05:47:57;;;;;;;7.38;4.97;;;;;;;20.43;61.02;101711.31;4995582;28;20054;-78
2022/05/09 05:50:24;;;;;;;5.55;4.97;;;;;;;20.44;60.91;101717.53;4995183;28;20046;-77
2022/05/09 05:52:52;;;;;;;6.20;5.18;;;;;;;20.44;60.82;101720.22;4995019;28;20042;-78
2022/05/09 05:55:19;;;;;;;5.57;4.97;;;;;;;20.44;61.01;101731.84;4996058;28;20046;-78
2022/05/09 05:57:47;;;;;;;5.68;5.13;;;;;;;20.44;60.91;101731.84;4995656;28;20047;-78
2022/05/09 06:00:21;;;;;;;5.38;4.35;;;;;;;20.44;61.02;101739.06;4994569;28;20054;-78
2022/05/09 06:02:50;;;;;;;5.47;4.82;;;;;;;20.43;61.04;101735.53;5003355;28;20046;-78
2022/05/09 06:05:19;;;;;;;5.63;4.95;;;;;;;20.44;61.05;101736.38;4996645;28;20053;-78
2022/05/09 06:07:48;;;;;;;4.70;4.20;;;;;;;20.44;61.03;101739.06;4997087;28;20474;-78
2022/05/09 06:10:16;;;;;;;5.18;4.60;;;;;;;20.43;60.93;101738.22;4994829;28;20414;-78
2022/05/09 06:12:44;;;;;;;5.68;4.80;;;;;;;20.44;61.07;101742.59;4995266;28;20053;-78
2022/05/09 06:15:25;;;;;;;6.88;5.28;;;;;;;20.45;60.97;101748.84;4997132;28;20054;-78
2022/05/09 06:17:53;;;;;;;5.43;4.93;;;;;;;20.43;61.04;101748.97;4997096;28;20061;-78
2022/05/09 06:20:21;;;;;;;6.72;5.00;;;;;;;20.45;61.05;101756.91;4995226;28;20054;-78
2022/05/09 06:22:49;;;;;;;6.35;4.90;;;;;;;20.44;61.22;101756.06;4995083;28;20378;-78
2022/05/09 06:25:18;;;;;;;6.03;5.43;;;;;;;20.44;61.19;101758.75;4996722;28;20046;-79
2022/05/09 06:27:47;;;;;;;11.52;9.55;;;;;;;20.43;61.24;101764.25;4996618;28;20053;-79
2022/05/09 06:30:17;;;;;;;12.30;11.02;;;;;;;20.36;61.48;101755.78;4996772;28;20046;-80
2022/05/09 06:32:44;;;;;;;12.02;10.57;;;;;;;20.34;61.41;101759.56;4995797;28;20046;-79
2022/05/09 06:35:15;;;;;;;14.15;12.75;;;;;;;20.30;61.39;101761.63;4995834;28;20061;-81
2022/05/09 06:37:42;;;;;;;16.27;11.95;;;;;;;20.26;61.81;101765.53;4997129;28;20050;-82
2022/05/09 06:40:11;;;;;;;14.23;12.82;;;;;;;20.23;61.90;101753.16;4978793;28;20055;-82
2022/05/09 06:42:39;;;;;;;13.77;12.43;;;;;;;20.22;61.87;101758.66;4994415;28;20045;-80
2022/05/09 06:45:27;;;;;;;13.73;11.43;;;;;;;20.17;62.17;101752.75;4993585;28;20521;-79
2022/05/09 06:47:56;;;;;;;13.43;12.10;;;;;;;20.15;62.05;101750.19;4994385;28;20042;-82
2022/05/09 06:50:33;;;;;;;13.05;10.75;;;;;;;20.15;62.22;101752.03;4994916;28;20054;-80
2022/05/09 06:53:05;;;;;;;12.65;11.35;;;;;;;20.17;62.06;101755.44;4994634;28;20034;-81
2022/05/09 06:55:50;;;;;;;13.93;11.50;;;;;;;20.18;61.83;101758.03;4990441;28;20053;-81
2022/05/09 06:58:21;;;;;;;15.30;12.68;;;;;;;20.18;61.99;101770.63;4988282;28;20413;-81
2022/05/09 07:00:50;;;;;;;19.88;11.88;;;;;;;20.19;61.78;101773.19;4976865;28;20051;-80
2022/05/09 07:03:20;;;;;;;12.40;10.07;;;;;;;20.22;61.80;101777.50;4991918;28;20386;-79
2022/05/09 07:05:49;;;;;;;13.00;11.25;;;;;;;20.23;61.81;101776.50;4994697;28;20057;-79
2022/05/09 07:08:18;;;;;;;11.63;10.43;;;;;;;20.25;61.78;101775.44;4994226;28;20053;-78
2022/05/09 07:10:47;;;;;;;12.18;10.65;;;;;;;20.27;61.58;101780.69;4994410;28;20054;-77
2022/05/09 07:13:34;;;;;;;17.38;13.38;;;;;;;20.30;61.13;101783.16;4994138;28;20501;-78
2022/05/09 07:16:04;;;;;;;16.42;11.27;;;;;;;20.32;61.16;101777.66;4995376;28;20477;-78
2022/05/09 07:18:32;;;;;;;14.15;10.80;;;;;;;20.35;60.73;101780.97;4994849;28;20042;-77
2022/05/09 07:21:00;;;;;;;11.50;9.18;;;;;;;20.37;61.06;101792.44;4992969;28;20053;-77
2022/05/09 07:23:27;;;;;;;11.70;10.02;;;;;;;20.40;61.03;101794.06;4994092;28;20494;-77
2022/05/09 07:25:55;;;;;;;13.18;9.48;;;;;;;20.42;60.89;101789.44;4993949;28;20062;-76
2022/05/09 07:28:23;;;;;;;9.82;8.80;;;;;;;20.45;61.11;101792.72;4994854;28;20500;-77
2022/05/09 07:30:51;;;;;;;11.07;9.25;;;;;;;20.46;61.08;101790.91;4993700;28;20061;-78
2022/05/09 07:33:20;;;;;;;10.48;9.45;;;;;;;20.47;60.79;101795.31;4994896;28;20512;-77
2022/05/09 07:35:47;;;;;;;12.48;11.27;;;;;;;20.48;60.35;101791.66;4994978;28;20050;-77
2022/05/09 07:38:16;;;;;;;13.35;11.43;;;;;;;20.48;60.21;101789.84;4994768;28;20046;-77
2022/05/09 07:40:45;;;;;;;13.88;12.00;;;;;;;20.49;60.21;101796.94;4995118;28;20051;-76
2022/05/09 07:43:18;;;;;;;12.77;10.60;;;;;;;20.49;59.96;101794.25;4994729;28;20486;-78
2022/05/09 07:45:49;;;;;;;13.48;10.10;;;;;;;20.52;60.36;101801.22;4994966;28;20042;-77
2022/05/09 07:48:19;;;;;;;13.00;11.00;;;;;;;20.52;60.07;101795.00;4994620;28;20050;-78
2022/05/09 07:50:47;;;;;;;12.63;10.43;;;;;;;20.54;60.60;101796.63;4994275;28;20374;-78
2022/05/09 07:53:19;;;;;;;12.15;9.95;;;;;;;20.56;60.71;101794.66;4993948;28;20042;-78
2022/05/09 07:55:48;;;;;;;11.30;8.75;;;;;;;20.58;60.63;101794.53;4994415;28;20050;-77
2022/05/09 07:58:18;;;;;;;12.75;8.38;;;;;;;20.59;60.73;101789.03;4993943;28;20053;-78
2022/05/09 08:00:46;;;;;;;10.68;8.00;;;;;;;20.61;60.71;101797.84;4993498;28;20053;-77
2022/05/09 08:03:22;;;;;;;10.38;8.30;;;;;;;20.62;60.91;101794.19;4992518;28;20054;-77
2022/05/09 08:05:59;;;;;;;11.07;8.50;;;;;;;20.63;60.73;101797.75;4993397;28;20050;-75
2022/05/09 08:08:31;;;;;;;9.95;8.20;;;;;;;20.65;60.75;101809.22;4992477;28;20051;-76
2022/05/09 08:11:00;;;;;;;9.55;8.05;;;;;;;20.67;60.31;101808.16;4993063;28;20501;-77
2022/05/09 08:13:30;;;;;;;10.13;7.38;;;;;;;20.67;60.63;101805.47;4995045;28;20042;-77
2022/05/09 08:15:59;;;;;;;9.57;7.50;;;;;;;20.67;60.66;101805.47;4995385;28;20378;-77
2022/05/09 08:18:27;;;;;;;9.15;7.38;;;;;;;20.70;60.63;101804.34;4998015;28;20053;-77
2022/05/09 08:20:55;;;;;;;8.68;7.72;;;;;;;20.71;61.27;101798.00;4997587;28;20054;-76
2022/05/09 08:23:23;;;;;;;10.25;7.55;;;;;;;20.71;61.09;101798.88;4996870;28;20050;-78
2022/05/09 08:25:51;;;;;;;10.77;8.60;;;;;;;20.73;61.30;101801.44;4997387;28;20049;-77
2022/05/09 08:28:19;;;;;;;11.60;7.63;;;;;;;20.73;61.62;101796.91;4997796;28;20050;-76
2022/05/09 08:30:47;;;;;;;8.65;7.75;;;;;;;20.73;61.81;101801.44;4997277;28;20050;-76
2022/05/09 08:33:17;;;;;;;9.63;8.23;;;;;;;20.72;62.08;101800.56;4997409;28;20046;-77
2022/05/09 08:35:48;;;;;;;10.27;8.65;;;;;;;20.73;62.34;101796.91;4997009;28;20042;-77
2022/05/09 08:38:16;;;;;;;9.85;8.40;;;;;;;20.74;63.14;101803.13;4997793;28;20050;-77
2022/05/09 08:40:53;;;;;;;9.02;8.13;;;;;;;20.73;63.11;101798.75;4997626;28;20054;-77
2022/05/09 08:43:27;;;;;;;10.43;8.40;;;;;;;20.72;62.28;101805.97;4996813;28;20038;-77
2022/05/09 08:46:26;;;;;;;10.07;9.15;;;;;;;20.73;63.45;101806.81;4997346;28;20061;-76
2022/05/09 08:49:20;;;;;;;9.55;8.63;;;;;;;20.73;63.41;101806.81;4996646;28;20070;-77
2022/05/09 08:51:56;;;;;;;11.93;8.45;;;;;;;20.73;63.41;101810.34;4996525;28;20047;-77
2022/05/09 08:54:25;;;;;;;12.75;10.05;;;;;;;20.73;62.74;101810.34;4997227;28;20054;-76
2022/05/09 08:56:58;;;;;;;12.32;9.13;;;;;;;20.75;64.04;101810.25;4997356;28;20050;-76
2022/05/09 08:59:36;;;;;;;11.25;9.20;;;;;;;20.76;63.31;101811.09;4997462;28;20046;-77
2022/05/09 09:02:19;;;;;;;10.35;8.50;;;;;;;20.77;64.02;101812.81;4997159;28;20517;-76
2022/05/09 09:04:53;;;;;;;;;;;;;;;20.77;63.64;101813.66;4995360;28;20065;-76
2022/05/09 09:07:30;;;;;;;10.45;8.65;;;;;;;20.78;63.58;101814.53;4997004;28;19989;-76
2022/05/09 09:10:02;;;;;;;11.25;8.82;;;;;;;20.79;63.39;101811.75;4995893;28;20054;-76
2022/05/09 09:13:07;;;;;;;9.48;8.20;;;;;;;20.78;63.28;101810.00;4996969;28;20038;-80
2022/05/09 09:15:49;;;;;;;8.65;7.75;;;;;;;20.79;62.78;101802.81;5014007;28;20057;-76
2022/05/09 09:18:42;;;;;;;9.43;8.40;;;;;;;20.79;63.38;101803.66;5013884;28;20066;-77
2022/05/09 09:21:18;;;;;;;8.90;8.03;;;;;;;20.81;63.45;101801.69;5013823;28;20497;-77
2022/05/09 09:24:08;;;;;;;9.93;8.95;;;;;;;20.81;63.32;101799.00;5013740;28;20398;-77
2022/05/09 09:26:56;;;;;;;10.18;8.27;;;;;;;20.82;62.89;101807.94;5013431;28;20441;-78
2022/05/09 09:29:38;;;;;;;9.75;8.60;;;;;;;20.82;63.21;101795.31;4997671;28;20065;-78
2022/05/09 09:32:11;;;;;;;9.75;8.75;;;;;;;20.83;63.10;101798.91;5015240;28;20049;-80
2022/05/09 09:34:39;;;;;;;11.18;9.45;;;;;;;20.83;62.54;101801.59;5014002;28;20417;-80
2022/05/09 09:37:18;;;;;;;10.18;8.63;;;;;;;20.84;62.61;101798.78;5015309;28;20053;-78
2022/05/09 09:39:46;;;;;;;16.95;9.80;;;;;;;20.85;62.58;101800.47;5013700;28;20089;-77
2022/05/09 09:42:13;;;;;;;13.18;10.63;;;;;;;20.85;62.37;101800.47;5013255;28;20096;-79
2022/05/09 09:44:45;;;;;;;10.18;9.18;;;;;;;20.87;62.06;101798.53;5013954;28;20053;-78
2022/05/09 09:47:23;;;;;;;9.55;8.65;;;;;;;20.87;62.52;101801.25;5014279;28;20057;-78
2022/05/09 09:50:29;;;;;;;10.05;9.05;;;;;;;20.89;62.41;101798.41;5001800;28;20058;-81
2022/05/09 09:52:58;;;;;;;8.85;7.95;;;;;;;20.89;62.67;101795.72;4996429;28;20057;-77
2022/05/09 09:55:33;;;;;;;11.20;9.35;;;;;;;20.90;62.54;101800.13;4996656;28;20512;-75
2022/05/09 09:58:28;;;;;;;11.95;9.27;;;;;;;20.91;62.05;101801.88;4996434;28;20058;-75
2022/05/09 10:01:11;;;;;;;8.95;7.88;;;;;;;20.91;62.45;101799.16;4995259;28;20050;-77
2022/05/09 10:03:42;;;;;;;8.80;7.82;;;;;;;20.91;62.94;101799.16;4995776;28;20074;-76
2022/05/09 10:06:20;;;;;;;9.43;7.13;;;;;;;20.91;63.23;101791.09;4995691;28;20057;-78
2022/05/09 10:09:00;;;;;;;9.70;8.80;;;;;;;20.90;63.07;101800.13;4993939;28;20065;-76
2022/05/09 10:11:29;;;;;;;;;;;;;;;20.91;63.58;101791.09;4995889;28;20046;-77
2022/05/09 10:13:59;;;;;;;9.13;8.23;;;;;;;20.90;63.50;101783.97;5010270;28;19921;-79
2022/05/09 10:16:28;;;;;;;8.57;7.68;;;;;;;20.90;63.60;101784.84;4995853;28;20050;-77
2022/05/09 10:18:56;;;;;;;8.80;8.00;;;;;;;20.90;63.62;101783.97;4995254;28;20050;-77
2022/05/09 10:24:49;;;;;;;10.50;8.88;;;;;;;20.91;62.11;101785.72;4994470;28;20062;-77
2022/05/09 10:27:22;;;;;;;9.80;8.77;;;;;;;20.92;62.50;101782.03;4996248;28;20053;-78
2022/05/09 10:29:54;;;;;;;10.32;8.88;;;;;;;20.91;62.02;101777.63;4995319;28;20050;-78
2022/05/09 10:32:59;;;;;;;9.40;8.40;;;;;;;20.91;62.19;101770.41;4996384;28;20046;-79
2022/05/09 10:35:37;;;;;;;10.82;8.15;;;;;;;20.93;61.94;101779.22;4995036;28;20050;-79
2022/05/09 10:38:35;;;;;;;9.77;8.77;;;;;;;20.93;62.04;101781.91;4993718;28;20054;-78
2022/05/09 10:41:13;;;;;;;10.18;8.32;;;;;;;20.94;62.42;101777.38;4996202;28;20050;-79
2022/05/09 10:43:58;;;;;;;9.98;8.98;;;;;;;20.93;61.85;101768.44;4995190;28;20046;-78
2022/05/09 10:46:48;;;;;;;11.38;8.82;;;;;;;20.94;62.04;101772.88;4994959;28;20042;-80
2022/05/09 10:49:32;;;;;;;10.35;9.38;;;;;;;20.95;61.85;101762.97;4995439;28;20042;-77
2022/05/09 10:52:04;;;;;;;9.90;8.88;;;;;;;20.93;62.06;101755.00;4995825;28;20165;-78
2022/05/09 10:54:50;;;;;;;10.95;9.95;;;;;;;20.96;63.04;101759.28;4995247;28;20053;-77
2022/05/09 10:57:26;;;;;;;10.30;8.55;;;;;;;20.96;62.40;101761.97;4994137;28;20057;-80
2022/05/09 11:00:19;;;;;;;14.70;10.43;;;;;;;20.95;62.00;101750.34;4994751;28;20077;-75
2022/05/09 11:03:05;;;;;;;11.60;10.00;;;;;;;20.95;61.59;101746.81;4994060;28;20375;-76
2022/05/09 11:06:00;;;;;;;14.40;13.00;;;;;;;20.97;62.24;101748.38;4994202;28;20195;-77
2022/05/09 11:08:53;;;;;;;12.68;11.50;;;;;;;20.97;61.45;101748.38;4994007;28;20046;-76
2022/05/09 11:11:29;;;;;;;;;;;;;;;20.97;61.63;101747.53;4994474;28;20062;-76
2022/05/09 11:14:38;;;;;;;11.98;10.73;;;;;;;20.98;61.82;101752.81;4994284;28;20384;-78
2022/05/09 11:17:24;;;;;;;11.70;10.60;;;;;;;20.98;61.70;101741.16;5011462;28;20068;-76
2022/05/09 11:20:10;;;;;;;11.23;10.10;;;;;;;20.98;60.80;101735.78;5011557;28;20053;-80
2022/05/09 11:22:47;;;;;;;11.63;10.48;;;;;;;20.96;58.90;101733.22;4996301;28;20046;-76
2022/05/09 11:25:42;;;;;;;13.02;10.55;;;;;;;20.96;59.62;101735.06;5012008;28;20583;-75
2022/05/09 11:28:49;;;;;;;15.45;11.10;;;;;;;20.96;60.72;101733.22;5013205;28;20072;-76
2022/05/09 11:31:35;;;;;;;15.15;10.63;;;;;;;20.94;58.05;101735.19;4934462;29;20056;-80
2022/05/09 11:34:02;;;;;;;11.85;9.05;;;;;;;20.96;58.97;101732.38;4934614;29;20055;-76
2022/05/09 11:36:52;;;;;;;10.50;8.70;;;;;;;20.96;59.26;101732.38;4934169;29;20060;-75
2022/05/09 11:39:28;;;;;;;12.18;9.48;;;;;;;20.97;59.43;101726.00;4934135;29;20056;-73
2022/05/09 11:43:27;;;;;;;11.38;9.20;;;;;;;20.97;59.94;101728.69;4934177;29;20071;-74
2022/05/09 11:45:02;;;;;;;10.18;8.98;;;;;;;20.98;60.96;101733.09;4933475;29;20039;-73
2022/05/09 11:47:35;;;;;;;11.38;9.93;;;;;;;20.97;61.19;101724.16;4933897;29;20060;-77
2022/05/09 11:50:21;;;;;;;11.57;10.48;;;;;;;20.96;60.35;101725.16;4934970;29;20087;-73
2022/05/09 11:52:48;;;;;;;14.07;10.50;;;;;;;20.96;60.71;101718.91;4940230;29;20102;-73
2022/05/09 11:55:21;;;;;;;11.40;10.07;;;;;;;20.96;60.24;101724.28;4956571;29;20063;-73
2022/05/09 11:57:55;;;;;;;11.75;10.60;;;;;;;20.97;61.02;101715.22;4956644;29;20055;-73
2022/05/09 12:00:26;;;;;;;11.70;10.35;;;;;;;20.96;60.42;101713.53;4956993;29;20066;-72
2022/05/09 12:03:02;;;;;;;10.95;9.85;;;;;;;20.96;60.71;101713.53;4956575;29;20059;-72
2022/05/09 12:05:31;;;;;;;10.43;9.32;;;;;;;20.97;61.36;101710.69;4956469;28;20051;-72
2022/05/09 12:08:07;;;;;;;10.25;9.25;;;;;;;20.98;61.34;101708.88;4967323;28;20062;-72